Flight Track Log - Related Links

Times and Time Zones

All times are in EDT time to prevent confusion due to time zone crossing. See the FLG4222 flight status page for this flight to view local times or setup timezone preferences in your user account.

Time Position Orientation Groundspeed Altitude Reporting Facility
EDT Latitude Longitude Course Direction KTS MPH feet Rate Location/Type
Thu 11:28:16 AM 42.2081 -83.3675 174° South 150 173 1,400  Level Cleveland Center
Thu 11:28:47 AM 42.1853 -83.3642 174° South 165 190 2,500 2,152 Climbing Cleveland Center
Thu 11:29:48 AM 42.1269 -83.3589 176° South 231 266 4,700 2,000 Climbing Cleveland Center
Thu 11:30:08 AM 42.1097 -83.3567 175° South 213 245 5,200 2,700 Climbing Cleveland Center
Thu 11:30:48 AM 42.0700 -83.3114 140° Southeast 290 334 7,400 2,710 Climbing Cleveland Center
Thu 11:31:10 AM 42.0633 -83.2806 106° East 281 323 8,000 2,656 Climbing Cleveland Center
Thu 11:31:49 AM 42.0861 -83.2094 67° East 300 345 10,100 2,656 Climbing Cleveland Center
Thu 11:32:11 AM 42.0967 -83.1797 64° Northeast 308 354 10,700 1,475 Climbing Cleveland Center
Thu 11:32:50 AM 42.1281 -83.1000 62° Northeast 332 382 11,600 1,161 Climbing Cleveland Center
Thu 11:33:13 AM 42.1397 -83.0661 65° Northeast 343 395 11,900 1,000 Climbing Cleveland Center
Thu 11:34:14 AM 42.1869 -82.9392 63° Northeast 378 435 13,000 1,366 Climbing Cleveland Center
Thu 11:35:16 AM 42.2447 -82.7850 63° Northeast 387 445 14,700 1,707 Climbing Cleveland Center
Thu 11:36:17 AM 42.2914 -82.6567 64° Northeast 383 441 16,500 1,463 Climbing Cleveland Center
Thu 11:37:19 AM 42.3400 -82.5258 63° Northeast 388 447 17,700 1,024 Climbing Cleveland Center
Thu 11:38:20 AM 42.3636 -82.3731 78° East 426 490 18,600 976 Climbing Cleveland Center
Thu 11:39:22 AM 42.3572 -82.2150 93° East 424 488 19,700 1,161 Climbing Cleveland Center
Thu 11:40:24 AM 42.3492 -82.0306 93° East 432 497 21,000 1,317 Climbing Cleveland Center
Thu 11:41:25 AM 42.3431 -81.8683 93° East 429 494 22,400 1,220 Climbing Cleveland Center
Thu 11:42:27 AM 42.3369 -81.7081 93° East 424 488 23,500 976 Climbing Cleveland Center
Thu 11:43:28 AM 42.3278 -81.5478 94° East 424 488 24,400 683 Climbing Cleveland Center
Thu 11:44:30 AM 42.3208 -81.3814 93° East 435 501 24,900 293 Climbing Cleveland Center
Thu 11:45:31 AM 42.3119 -81.2114 94° East 446 513 25,000 49 Climbing Cleveland Center
Thu 11:46:33 AM 42.3033 -81.0356 94° East 460 529 25,000  Level Cleveland Center
Thu 11:47:35 AM 42.2947 -80.8600 94° East 464 534 25,000  Level Cleveland Center
Thu 11:48:36 AM 42.2964 -80.6842 89° East 464 534 25,000  Level Cleveland Center
Thu 11:49:38 AM 42.2978 -80.5122 89° East 457 526 25,000  Level Cleveland Center
Thu 11:50:39 AM 42.2975 -80.3361 90° East 462 532 25,000  Level Cleveland Center
Thu 11:51:41 AM 42.2972 -80.1597 90° East 465 535 25,000  Level Cleveland Center
Thu 11:52:42 AM 42.2958 -79.9572 90° East 470 541 25,000  Level Cleveland Center
Thu 11:53:44 AM 42.2956 -79.7853 90° East 463 533 25,000  Level Cleveland Center
Thu 11:54:45 AM 42.2933 -79.6114 91° East 464 534 25,000  Level Cleveland Center
Thu 11:55:47 AM 42.2928 -79.4358 90° East 470 541 25,000  Level Cleveland Center
Thu 11:56:49 AM 42.2908 -79.2583 91° East 474 545 25,000  Level Cleveland Center
Thu 11:57:50 AM 42.2886 -79.0806 91° East 476 548 25,000 -390 Level Cleveland Center
Thu 11:58:52 AM 42.2853 -78.8886 91° East 472 543 24,200 -1,024 Descending Cleveland Center
Thu 11:59:53 AM 42.2836 -78.7186 91° East 458 527 22,900 -1,220 Descending Cleveland Center
Thu 12:00:55 PM 42.2806 -78.5503 91° East 453 521 21,700 -1,258 Descending Cleveland Center
Thu 12:01:57 PM 42.2778 -78.3556 91° East 439 505 20,300 -1,415 Descending Cleveland Center
Thu 12:02:58 PM 42.2742 -78.1981 92° East 426 490 18,800 -1,512 Descending Cleveland Center
Thu 12:04:00 PM 42.2719 -78.0514 91° East 401 461 17,200 -1,659 Descending Cleveland Center
Thu 12:05:01 PM 42.2692 -77.9019 91° East 402 463 15,400 -1,561 Descending Cleveland Center
Thu 12:06:03 PM 42.2650 -77.7506 92° East 407 468 14,000 -1,415 Descending Cleveland Center
Thu 12:07:04 PM 42.2614 -77.6056 92° East 399 459 12,500 -1,561 Descending Cleveland Center
Thu 12:08:06 PM 42.2569 -77.4419 92° East 374 430 10,800 -1,306 Descending Cleveland Center
Thu 12:09:08 PM 42.2536 -77.3222 92° East 329 379 9,800 -878 Descending Cleveland Center
Thu 12:10:09 PM 42.2503 -77.2117 92° East 299 344 9,000 -387 Descending Cleveland Center
Thu 12:11:12 PM 42.2483 -77.0989 91° East 303 349 9,000  Level New York Center
Thu 12:12:12 PM 42.2442 -76.9808 93° East 303 349 9,000  Level New York Center
Thu 12:13:12 PM 42.2394 -76.8714 93° East 303 349 9,000  Level New York Center
Thu 12:14:12 PM 42.2331 -76.7475 94° East 298 343 9,000  Level New York Center
Thu 12:15:12 PM 42.2322 -76.6381 91° East 293 337 9,000  Level New York Center
Thu 12:16:12 PM 42.2275 -76.5256 93° East 293 337 9,000 -50 Level New York Center
Thu 12:17:12 PM 42.2244 -76.4133 92° East 293 337 8,900 -750 Descending New York Center
Thu 12:18:12 PM 42.2217 -76.2983 92° East 293 337 7,500 -1,450 Descending New York Center
Thu 12:19:12 PM 42.2181 -76.1944 93° East 288 331 6,000 -1,450 Descending New York Center
Thu 12:20:12 PM 42.2033 -76.1036 102° East 261 300 4,600 -1,150 Descending New York Center
Thu 12:21:12 PM 42.1617 -76.0611 143° Southeast 225 259 3,700 -550 Descending New York Center
Thu 12:22:12 PM 42.1239 -76.0161 139° Southeast 198 228 3,500 -350 Descending New York Center
Thu 12:23:12 PM 42.1411 -75.9561 69° East 157 181 3,000 -650 Descending New York Center
Thu 12:24:12 PM 42.1789 -75.9533 North 111 128 2,200 -500 Descending New York Center
Thu 12:25:12 PM 42.2044 -75.9358 27° Northeast 89 102 2,000 -200 Descending New York Center

Login

Don't have an account? Register now (free) for customized features, flight alerts, and more!